sensor_id;sensor_type;location;lat;lon;timestamp;temperature;humidity
19868;DHT22;10096;51.112;6.776;2023-07-08T00:00:41;23.10;99.90
19868;DHT22;10096;51.112;6.776;2023-07-08T00:03:15;22.80;99.90
19868;DHT22;10096;51.112;6.776;2023-07-08T00:05:43;23.00;99.90
19868;DHT22;10096;51.112;6.776;2023-07-08T00:08:13;23.00;99.90
19868;DHT22;10096;51.112;6.776;2023-07-08T00:10:41;23.10;99.90
19868;DHT22;10096;51.112;6.776;2023-07-08T00:13:09;23.30;99.90
19868;DHT22;10096;51.112;6.776;2023-07-08T00:15:39;23.10;99.90
19868;DHT22;10096;51.112;6.776;2023-07-08T00:18:16;23.10;99.90
19868;DHT22;10096;51.112;6.776;2023-07-08T00:20:47;23.20;99.90
19868;DHT22;10096;51.112;6.776;2023-07-08T00:23:14;23.10;99.90
19868;DHT22;10096;51.112;6.776;2023-07-08T00:25:42;23.00;99.90
19868;DHT22;10096;51.112;6.776;2023-07-08T00:28:10;23.10;99.90
19868;DHT22;10096;51.112;6.776;2023-07-08T00:30:39;23.20;99.90
19868;DHT22;10096;51.112;6.776;2023-07-08T00:33:07;23.00;99.90
19868;DHT22;10096;51.112;6.776;2023-07-08T00:35:38;23.00;99.90
19868;DHT22;10096;51.112;6.776;2023-07-08T00:38:14;23.00;99.90
19868;DHT22;10096;51.112;6.776;2023-07-08T00:40:50;22.90;99.90
19868;DHT22;10096;51.112;6.776;2023-07-08T00:43:19;22.90;99.90
19868;DHT22;10096;51.112;6.776;2023-07-08T00:45:52;23.00;99.90
19868;DHT22;10096;51.112;6.776;2023-07-08T00:48:23;23.10;99.90
19868;DHT22;10096;51.112;6.776;2023-07-08T00:50:52;22.90;99.90
19868;DHT22;10096;51.112;6.776;2023-07-08T00:53:24;22.80;99.90
19868;DHT22;10096;51.112;6.776;2023-07-08T00:55:54;22.90;99.90
19868;DHT22;10096;51.112;6.776;2023-07-08T00:58:24;22.60;99.90
19868;DHT22;10096;51.112;6.776;2023-07-08T01:00:53;22.20;99.90
19868;DHT22;10096;51.112;6.776;2023-07-08T01:03:23;22.30;99.90
19868;DHT22;10096;51.112;6.776;2023-07-08T01:05:57;22.30;99.90
19868;DHT22;10096;51.112;6.776;2023-07-08T01:08:28;22.00;99.90
19868;DHT22;10096;51.112;6.776;2023-07-08T01:11:01;21.80;99.90
19868;DHT22;10096;51.112;6.776;2023-07-08T01:13:33;21.70;99.90
19868;DHT22;10096;51.112;6.776;2023-07-08T01:16:03;21.70;99.90
19868;DHT22;10096;51.112;6.776;2023-07-08T01:18:33;21.70;99.90
19868;DHT22;10096;51.112;6.776;2023-07-08T01:21:30;21.60;99.90
19868;DHT22;10096;51.112;6.776;2023-07-08T01:24:02;21.50;99.90
19868;DHT22;10096;51.112;6.776;2023-07-08T01:26:30;21.60;99.90
19868;DHT22;10096;51.112;6.776;2023-07-08T01:28:59;21.50;99.90
19868;DHT22;10096;51.112;6.776;2023-07-08T01:31:26;21.30;99.90
19868;DHT22;10096;51.112;6.776;2023-07-08T01:33:54;21.30;99.90
19868;DHT22;10096;51.112;6.776;2023-07-08T01:36:21;21.20;99.90
19868;DHT22;10096;51.112;6.776;2023-07-08T01:38:53;21.20;99.90
19868;DHT22;10096;51.112;6.776;2023-07-08T01:41:23;21.10;99.90
19868;DHT22;10096;51.112;6.776;2023-07-08T01:43:50;21.20;99.90
19868;DHT22;10096;51.112;6.776;2023-07-08T01:46:22;21.20;99.90
19868;DHT22;10096;51.112;6.776;2023-07-08T01:48:53;21.30;99.90
19868;DHT22;10096;51.112;6.776;2023-07-08T01:51:21;21.50;99.90
19868;DHT22;10096;51.112;6.776;2023-07-08T01:53:49;21.20;99.90
19868;DHT22;10096;51.112;6.776;2023-07-08T01:56:17;21.30;99.90
19868;DHT22;10096;51.112;6.776;2023-07-08T01:58:48;21.30;99.90
19868;DHT22;10096;51.112;6.776;2023-07-08T02:01:17;21.30;99.90
19868;DHT22;10096;51.112;6.776;2023-07-08T02:03:44;21.40;99.90
19868;DHT22;10096;51.112;6.776;2023-07-08T02:06:12;21.30;99.90
19868;DHT22;10096;51.112;6.776;2023-07-08T02:08:39;21.40;99.90
19868;DHT22;10096;51.112;6.776;2023-07-08T02:11:07;21.60;99.90
19868;DHT22;10096;51.112;6.776;2023-07-08T02:13:34;21.30;99.90
19868;DHT22;10096;51.112;6.776;2023-07-08T02:16:03;21.50;99.90
19868;DHT22;10096;51.112;6.776;2023-07-08T02:18:34;21.30;99.90
19868;DHT22;10096;51.112;6.776;2023-07-08T02:21:01;21.30;99.90
19868;DHT22;10096;51.112;6.776;2023-07-08T02:23:29;21.40;99.90
19868;DHT22;10096;51.112;6.776;2023-07-08T02:25:57;21.50;99.90
19868;DHT22;10096;51.112;6.776;2023-07-08T02:28:24;21.50;99.90
19868;DHT22;10096;51.112;6.776;2023-07-08T02:30:52;21.50;99.90
19868;DHT22;10096;51.112;6.776;2023-07-08T02:33:21;21.70;99.90
19868;DHT22;10096;51.112;6.776;2023-07-08T02:35:58;21.80;99.90
19868;DHT22;10096;51.112;6.776;2023-07-08T02:38:26;21.90;99.90
19868;DHT22;10096;51.112;6.776;2023-07-08T02:40:53;21.70;99.90
19868;DHT22;10096;51.112;6.776;2023-07-08T02:43:21;21.70;99.90
19868;DHT22;10096;51.112;6.776;2023-07-08T02:45:51;21.30;99.90
19868;DHT22;10096;51.112;6.776;2023-07-08T02:48:18;21.40;99.90
19868;DHT22;10096;51.112;6.776;2023-07-08T02:50:47;21.20;99.90
19868;DHT22;10096;51.112;6.776;2023-07-08T02:53:15;21.30;99.90
19868;DHT22;10096;51.112;6.776;2023-07-08T02:55:45;21.30;99.90
19868;DHT22;10096;51.112;6.776;2023-07-08T02:58:13;21.40;99.90
19868;DHT22;10096;51.112;6.776;2023-07-08T03:00:40;21.30;99.90
19868;DHT22;10096;51.112;6.776;2023-07-08T03:03:08;21.20;99.90
19868;DHT22;10096;51.112;6.776;2023-07-08T03:05:35;21.20;99.90
19868;DHT22;10096;51.112;6.776;2023-07-08T03:08:04;21.30;99.90
19868;DHT22;10096;51.112;6.776;2023-07-08T03:10:32;21.20;99.90
19868;DHT22;10096;51.112;6.776;2023-07-08T03:12:59;21.20;99.90
19868;DHT22;10096;51.112;6.776;2023-07-08T03:15:26;21.20;99.90
19868;DHT22;10096;51.112;6.776;2023-07-08T03:17:53;21.20;99.90
19868;DHT22;10096;51.112;6.776;2023-07-08T03:20:28;21.40;99.90
19868;DHT22;10096;51.112;6.776;2023-07-08T03:22:58;21.10;99.90
19868;DHT22;10096;51.112;6.776;2023-07-08T03:25:27;21.00;99.90
19868;DHT22;10096;51.112;6.776;2023-07-08T03:27:58;20.90;99.90
19868;DHT22;10096;51.112;6.776;2023-07-08T03:30:26;20.80;99.90
19868;DHT22;10096;51.112;6.776;2023-07-08T03:32:54;20.90;99.90
19868;DHT22;10096;51.112;6.776;2023-07-08T03:35:21;20.80;99.90
19868;DHT22;10096;51.112;6.776;2023-07-08T03:37:48;20.70;99.90
19868;DHT22;10096;51.112;6.776;2023-07-08T03:40:16;21.20;99.90
19868;DHT22;10096;51.112;6.776;2023-07-08T03:42:45;21.00;99.90
19868;DHT22;10096;51.112;6.776;2023-07-08T03:45:15;21.00;99.90
19868;DHT22;10096;51.112;6.776;2023-07-08T03:47:42;21.10;99.90
19868;DHT22;10096;51.112;6.776;2023-07-08T03:50:20;21.20;99.90
19868;DHT22;10096;51.112;6.776;2023-07-08T03:52:54;21.20;99.90
19868;DHT22;10096;51.112;6.776;2023-07-08T03:55:23;21.70;99.90
19868;DHT22;10096;51.112;6.776;2023-07-08T03:58:00;21.80;99.90
19868;DHT22;10096;51.112;6.776;2023-07-08T04:00:28;22.30;99.90
19868;DHT22;10096;51.112;6.776;2023-07-08T04:02:59;22.60;99.90
19868;DHT22;10096;51.112;6.776;2023-07-08T04:05:27;22.80;99.90
19868;DHT22;10096;51.112;6.776;2023-07-08T04:07:55;22.60;99.90
19868;DHT22;10096;51.112;6.776;2023-07-08T04:10:22;22.50;99.90
19868;DHT22;10096;51.112;6.776;2023-07-08T04:12:50;22.50;99.90
19868;DHT22;10096;51.112;6.776;2023-07-08T04:15:19;22.50;99.90
19868;DHT22;10096;51.112;6.776;2023-07-08T04:17:53;22.00;99.90
19868;DHT22;10096;51.112;6.776;2023-07-08T04:20:21;22.20;99.90
19868;DHT22;10096;51.112;6.776;2023-07-08T04:22:51;22.40;99.90
19868;DHT22;10096;51.112;6.776;2023-07-08T04:25:21;22.50;99.90
19868;DHT22;10096;51.112;6.776;2023-07-08T04:27:51;22.30;99.90
19868;DHT22;10096;51.112;6.776;2023-07-08T04:30:25;23.10;99.90
19868;DHT22;10096;51.112;6.776;2023-07-08T04:32:52;24.00;99.90
19868;DHT22;10096;51.112;6.776;2023-07-08T04:35:20;24.20;99.90
19868;DHT22;10096;51.112;6.776;2023-07-08T04:37:47;24.40;99.90
19868;DHT22;10096;51.112;6.776;2023-07-08T04:40:19;23.80;99.90
19868;DHT22;10096;51.112;6.776;2023-07-08T04:42:46;23.50;99.90
19868;DHT22;10096;51.112;6.776;2023-07-08T04:45:16;23.00;99.90
19868;DHT22;10096;51.112;6.776;2023-07-08T04:47:47;22.80;99.90
19868;DHT22;10096;51.112;6.776;2023-07-08T04:50:17;22.40;99.90
19868;DHT22;10096;51.112;6.776;2023-07-08T04:52:48;22.20;99.90
19868;DHT22;10096;51.112;6.776;2023-07-08T04:55:18;22.10;99.90
19868;DHT22;10096;51.112;6.776;2023-07-08T04:57:47;22.00;99.90
19868;DHT22;10096;51.112;6.776;2023-07-08T05:00:16;22.00;99.90
19868;DHT22;10096;51.112;6.776;2023-07-08T05:02:46;22.00;99.90
19868;DHT22;10096;51.112;6.776;2023-07-08T05:05:13;22.70;99.90
19868;DHT22;10096;51.112;6.776;2023-07-08T05:07:41;24.10;99.90
19868;DHT22;10096;51.112;6.776;2023-07-08T05:10:08;25.60;99.90
19868;DHT22;10096;51.112;6.776;2023-07-08T05:12:40;26.20;99.90
19868;DHT22;10096;51.112;6.776;2023-07-08T05:15:08;26.80;99.90
19868;DHT22;10096;51.112;6.776;2023-07-08T05:17:36;27.30;99.90
19868;DHT22;10096;51.112;6.776;2023-07-08T05:20:07;27.80;99.90
19868;DHT22;10096;51.112;6.776;2023-07-08T05:22:35;28.60;99.90
19868;DHT22;10096;51.112;6.776;2023-07-08T05:25:03;28.50;99.90
19868;DHT22;10096;51.112;6.776;2023-07-08T05:27:31;28.60;99.90
19868;DHT22;10096;51.112;6.776;2023-07-08T05:30:00;28.50;99.90
19868;DHT22;10096;51.112;6.776;2023-07-08T05:32:28;28.20;99.90
19868;DHT22;10096;51.112;6.776;2023-07-08T05:34:59;28.70;99.90
19868;DHT22;10096;51.112;6.776;2023-07-08T05:37:27;29.50;99.90
19868;DHT22;10096;51.112;6.776;2023-07-08T05:39:55;29.80;99.90
19868;DHT22;10096;51.112;6.776;2023-07-08T05:42:23;30.20;99.90
19868;DHT22;10096;51.112;6.776;2023-07-08T05:44:50;30.70;99.90
19868;DHT22;10096;51.112;6.776;2023-07-08T05:47:20;31.10;99.90
19868;DHT22;10096;51.112;6.776;2023-07-08T05:49:48;31.30;99.90
19868;DHT22;10096;51.112;6.776;2023-07-08T05:52:17;31.50;99.90
19868;DHT22;10096;51.112;6.776;2023-07-08T05:54:48;31.60;99.90
19868;DHT22;10096;51.112;6.776;2023-07-08T05:57:15;31.60;99.90
19868;DHT22;10096;51.112;6.776;2023-07-08T05:59:42;32.00;99.90
19868;DHT22;10096;51.112;6.776;2023-07-08T06:02:11;32.00;99.90
19868;DHT22;10096;51.112;6.776;2023-07-08T06:04:41;31.90;99.90
19868;DHT22;10096;51.112;6.776;2023-07-08T06:07:11;32.00;99.90
19868;DHT22;10096;51.112;6.776;2023-07-08T06:09:38;32.20;99.90
19868;DHT22;10096;51.112;6.776;2023-07-08T06:12:07;32.20;99.90
19868;DHT22;10096;51.112;6.776;2023-07-08T06:14:37;32.20;99.90
19868;DHT22;10096;51.112;6.776;2023-07-08T06:17:05;31.90;99.90
19868;DHT22;10096;51.112;6.776;2023-07-08T06:19:33;31.80;99.90
19868;DHT22;10096;51.112;6.776;2023-07-08T06:22:01;32.50;99.90
19868;DHT22;10096;51.112;6.776;2023-07-08T06:24:28;32.60;99.90
19868;DHT22;10096;51.112;6.776;2023-07-08T06:26:58;33.00;99.90
19868;DHT22;10096;51.112;6.776;2023-07-08T06:29:26;33.60;99.90
19868;DHT22;10096;51.112;6.776;2023-07-08T06:31:54;33.20;99.90
19868;DHT22;10096;51.112;6.776;2023-07-08T06:34:23;32.70;99.90
19868;DHT22;10096;51.112;6.776;2023-07-08T06:36:54;32.90;99.90
19868;DHT22;10096;51.112;6.776;2023-07-08T06:39:21;33.20;99.90
19868;DHT22;10096;51.112;6.776;2023-07-08T06:41:50;33.20;99.90
19868;DHT22;10096;51.112;6.776;2023-07-08T06:44:20;33.20;99.90
19868;DHT22;10096;51.112;6.776;2023-07-08T06:46:49;33.30;99.90
19868;DHT22;10096;51.112;6.776;2023-07-08T06:49:16;33.40;99.90
19868;DHT22;10096;51.112;6.776;2023-07-08T06:51:43;33.60;99.90
19868;DHT22;10096;51.112;6.776;2023-07-08T06:54:12;33.70;99.90
19868;DHT22;10096;51.112;6.776;2023-07-08T06:56:40;33.80;99.90
19868;DHT22;10096;51.112;6.776;2023-07-08T06:59:08;34.00;99.90
19868;DHT22;10096;51.112;6.776;2023-07-08T07:01:36;33.60;99.90
19868;DHT22;10096;51.112;6.776;2023-07-08T07:04:06;34.00;99.90
19868;DHT22;10096;51.112;6.776;2023-07-08T07:06:33;34.30;99.90
19868;DHT22;10096;51.112;6.776;2023-07-08T07:09:00;34.50;99.90
19868;DHT22;10096;51.112;6.776;2023-07-08T07:11:30;34.30;99.90
19868;DHT22;10096;51.112;6.776;2023-07-08T07:13:57;34.10;99.90
19868;DHT22;10096;51.112;6.776;2023-07-08T07:16:25;33.80;99.90
19868;DHT22;10096;51.112;6.776;2023-07-08T07:18:53;33.70;99.90
19868;DHT22;10096;51.112;6.776;2023-07-08T07:21:21;34.00;99.90
19868;DHT22;10096;51.112;6.776;2023-07-08T07:23:49;33.90;99.90
19868;DHT22;10096;51.112;6.776;2023-07-08T07:26:16;34.00;99.90
19868;DHT22;10096;51.112;6.776;2023-07-08T07:28:43;34.70;99.90
19868;DHT22;10096;51.112;6.776;2023-07-08T07:31:10;35.20;99.90
19868;DHT22;10096;51.112;6.776;2023-07-08T07:33:37;34.90;99.90
19868;DHT22;10096;51.112;6.776;2023-07-08T07:36:05;33.90;99.90
19868;DHT22;10096;51.112;6.776;2023-07-08T07:38:34;33.60;99.90
19868;DHT22;10096;51.112;6.776;2023-07-08T07:41:02;33.60;99.90
19868;DHT22;10096;51.112;6.776;2023-07-08T07:43:32;34.70;99.90
19868;DHT22;10096;51.112;6.776;2023-07-08T07:45:59;35.40;99.90
19868;DHT22;10096;51.112;6.776;2023-07-08T07:48:26;36.00;99.90
19868;DHT22;10096;51.112;6.776;2023-07-08T07:50:57;36.30;99.90
19868;DHT22;10096;51.112;6.776;2023-07-08T07:53:24;36.40;99.90
19868;DHT22;10096;51.112;6.776;2023-07-08T07:55:58;36.50;99.90
19868;DHT22;10096;51.112;6.776;2023-07-08T07:58:25;36.20;99.90
19868;DHT22;10096;51.112;6.776;2023-07-08T08:00:52;36.10;99.90
19868;DHT22;10096;51.112;6.776;2023-07-08T08:03:20;36.20;99.90
19868;DHT22;10096;51.112;6.776;2023-07-08T08:05:47;36.10;99.90
19868;DHT22;10096;51.112;6.776;2023-07-08T08:08:15;36.00;99.90
19868;DHT22;10096;51.112;6.776;2023-07-08T08:10:43;36.00;99.90
19868;DHT22;10096;51.112;6.776;2023-07-08T08:13:13;35.80;99.90
19868;DHT22;10096;51.112;6.776;2023-07-08T08:15:40;35.60;99.90
19868;DHT22;10096;51.112;6.776;2023-07-08T08:18:08;34.20;99.90
19868;DHT22;10096;51.112;6.776;2023-07-08T08:20:35;32.80;99.90
19868;DHT22;10096;51.112;6.776;2023-07-08T08:23:02;31.60;99.90
19868;DHT22;10096;51.112;6.776;2023-07-08T08:25:32;31.30;99.90
19868;DHT22;10096;51.112;6.776;2023-07-08T08:27:59;30.70;99.90
19868;DHT22;10096;51.112;6.776;2023-07-08T08:30:28;30.30;99.90
19868;DHT22;10096;51.112;6.776;2023-07-08T08:32:58;30.50;99.90
19868;DHT22;10096;51.112;6.776;2023-07-08T08:35:26;30.50;99.90
19868;DHT22;10096;51.112;6.776;2023-07-08T08:37:54;30.60;99.90
19868;DHT22;10096;51.112;6.776;2023-07-08T08:40:21;30.30;99.90
19868;DHT22;10096;51.112;6.776;2023-07-08T08:42:59;30.70;99.90
19868;DHT22;10096;51.112;6.776;2023-07-08T08:45:35;32.10;99.90
19868;DHT22;10096;51.112;6.776;2023-07-08T08:48:11;33.80;99.90
19868;DHT22;10096;51.112;6.776;2023-07-08T08:50:43;34.40;99.90
19868;DHT22;10096;51.112;6.776;2023-07-08T08:53:13;35.00;99.90
19868;DHT22;10096;51.112;6.776;2023-07-08T08:55:47;35.10;99.90
19868;DHT22;10096;51.112;6.776;2023-07-08T08:58:27;35.30;99.90
19868;DHT22;10096;51.112;6.776;2023-07-08T09:01:00;35.70;99.90
19868;DHT22;10096;51.112;6.776;2023-07-08T09:03:36;36.00;99.90
19868;DHT22;10096;51.112;6.776;2023-07-08T09:06:13;35.80;99.90
19868;DHT22;10096;51.112;6.776;2023-07-08T09:08:43;35.50;99.90
19868;DHT22;10096;51.112;6.776;2023-07-08T09:13:56;35.10;99.90
19868;DHT22;10096;51.112;6.776;2023-07-08T09:16:36;34.60;99.90
19868;DHT22;10096;51.112;6.776;2023-07-08T09:19:09;34.60;99.90
19868;DHT22;10096;51.112;6.776;2023-07-08T09:21:48;34.90;99.90
19868;DHT22;10096;51.112;6.776;2023-07-08T09:24:18;35.10;99.90
19868;DHT22;10096;51.112;6.776;2023-07-08T09:26:49;34.70;99.90
19868;DHT22;10096;51.112;6.776;2023-07-08T09:29:18;34.60;99.90
19868;DHT22;10096;51.112;6.776;2023-07-08T09:31:48;34.20;99.90
19868;DHT22;10096;51.112;6.776;2023-07-08T09:34:21;33.90;99.90
19868;DHT22;10096;51.112;6.776;2023-07-08T09:36:51;33.60;99.90
19868;DHT22;10096;51.112;6.776;2023-07-08T09:39:20;33.60;99.90
19868;DHT22;10096;51.112;6.776;2023-07-08T09:41:48;33.50;99.90
19868;DHT22;10096;51.112;6.776;2023-07-08T09:44:22;33.40;99.90
19868;DHT22;10096;51.112;6.776;2023-07-08T09:46:57;33.50;99.90
19868;DHT22;10096;51.112;6.776;2023-07-08T09:49:28;33.10;99.90
19868;DHT22;10096;51.112;6.776;2023-07-08T09:51:58;33.00;99.90
19868;DHT22;10096;51.112;6.776;2023-07-08T09:54:31;32.90;99.90
19868;DHT22;10096;51.112;6.776;2023-07-08T09:57:12;33.00;99.90
19868;DHT22;10096;51.112;6.776;2023-07-08T09:59:45;33.00;99.90
19868;DHT22;10096;51.112;6.776;2023-07-08T10:02:27;33.20;99.90
19868;DHT22;10096;51.112;6.776;2023-07-08T10:04:57;33.00;99.90
19868;DHT22;10096;51.112;6.776;2023-07-08T10:07:31;33.10;99.90
19868;DHT22;10096;51.112;6.776;2023-07-08T10:10:02;33.30;99.90
19868;DHT22;10096;51.112;6.776;2023-07-08T10:12:32;33.50;99.90
19868;DHT22;10096;51.112;6.776;2023-07-08T10:15:05;33.40;99.90
19868;DHT22;10096;51.112;6.776;2023-07-08T10:17:49;33.50;99.90
19868;DHT22;10096;51.112;6.776;2023-07-08T10:20:19;33.40;99.90
19868;DHT22;10096;51.112;6.776;2023-07-08T10:22:57;33.60;99.90
19868;DHT22;10096;51.112;6.776;2023-07-08T10:25:34;33.70;99.90
19868;DHT22;10096;51.112;6.776;2023-07-08T10:28:19;33.80;99.90
19868;DHT22;10096;51.112;6.776;2023-07-08T10:31:00;33.70;99.90
19868;DHT22;10096;51.112;6.776;2023-07-08T10:34:10;33.80;99.90
19868;DHT22;10096;51.112;6.776;2023-07-08T10:36:47;34.20;99.90
19868;DHT22;10096;51.112;6.776;2023-07-08T10:39:47;34.20;99.90
19868;DHT22;10096;51.112;6.776;2023-07-08T10:42:28;34.30;99.90
19868;DHT22;10096;51.112;6.776;2023-07-08T10:45:05;34.10;99.90
19868;DHT22;10096;51.112;6.776;2023-07-08T10:47:48;34.50;99.90
19868;DHT22;10096;51.112;6.776;2023-07-08T10:50:30;34.20;99.90
19868;DHT22;10096;51.112;6.776;2023-07-08T10:53:06;34.40;99.90
19868;DHT22;10096;51.112;6.776;2023-07-08T10:55:46;34.30;99.90
19868;DHT22;10096;51.112;6.776;2023-07-08T10:58:39;34.30;99.90
19868;DHT22;10096;51.112;6.776;2023-07-08T11:01:17;34.20;99.90
19868;DHT22;10096;51.112;6.776;2023-07-08T11:04:07;34.40;99.90
19868;DHT22;10096;51.112;6.776;2023-07-08T11:06:46;34.60;99.90
19868;DHT22;10096;51.112;6.776;2023-07-08T11:09:18;34.70;99.90
19868;DHT22;10096;51.112;6.776;2023-07-08T11:11:53;34.90;99.90
19868;DHT22;10096;51.112;6.776;2023-07-08T11:14:25;34.60;99.90
19868;DHT22;10096;51.112;6.776;2023-07-08T11:17:07;34.70;99.90
19868;DHT22;10096;51.112;6.776;2023-07-08T11:19:40;34.90;99.90
19868;DHT22;10096;51.112;6.776;2023-07-08T11:22:12;35.00;99.90
19868;DHT22;10096;51.112;6.776;2023-07-08T11:24:45;34.80;99.90
19868;DHT22;10096;51.112;6.776;2023-07-08T11:27:16;34.50;99.90
19868;DHT22;10096;51.112;6.776;2023-07-08T11:29:51;34.60;99.90
19868;DHT22;10096;51.112;6.776;2023-07-08T11:32:25;34.50;99.90
19868;DHT22;10096;51.112;6.776;2023-07-08T11:34:56;34.70;99.90
19868;DHT22;10096;51.112;6.776;2023-07-08T11:37:26;34.90;99.90
19868;DHT22;10096;51.112;6.776;2023-07-08T11:39:57;34.90;99.90
19868;DHT22;10096;51.112;6.776;2023-07-08T11:42:34;34.90;99.90
19868;DHT22;10096;51.112;6.776;2023-07-08T11:45:08;34.70;99.90
19868;DHT22;10096;51.112;6.776;2023-07-08T11:47:45;34.80;99.90
19868;DHT22;10096;51.112;6.776;2023-07-08T11:50:20;34.90;99.90
19868;DHT22;10096;51.112;6.776;2023-07-08T11:52:59;35.00;99.90
19868;DHT22;10096;51.112;6.776;2023-07-08T11:55:35;35.30;99.90
19868;DHT22;10096;51.112;6.776;2023-07-08T11:58:06;35.20;99.90
19868;DHT22;10096;51.112;6.776;2023-07-08T12:00:40;35.10;99.90
19868;DHT22;10096;51.112;6.776;2023-07-08T12:03:22;35.00;99.90
19868;DHT22;10096;51.112;6.776;2023-07-08T12:05:49;35.00;99.90
19868;DHT22;10096;51.112;6.776;2023-07-08T12:08:19;34.90;99.90
19868;DHT22;10096;51.112;6.776;2023-07-08T12:10:50;35.00;99.90
19868;DHT22;10096;51.112;6.776;2023-07-08T12:13:22;34.80;99.90
19868;DHT22;10096;51.112;6.776;2023-07-08T12:15:54;34.70;99.90
19868;DHT22;10096;51.112;6.776;2023-07-08T12:18:24;34.80;99.90
19868;DHT22;10096;51.112;6.776;2023-07-08T12:20:56;35.20;99.90
19868;DHT22;10096;51.112;6.776;2023-07-08T12:23:27;35.30;99.90
19868;DHT22;10096;51.112;6.776;2023-07-08T12:25:56;34.90;99.90
19868;DHT22;10096;51.112;6.776;2023-07-08T12:28:24;35.20;99.90
19868;DHT22;10096;51.112;6.776;2023-07-08T12:30:53;35.20;99.90
19868;DHT22;10096;51.112;6.776;2023-07-08T12:33:30;35.10;99.90
19868;DHT22;10096;51.112;6.776;2023-07-08T12:35:59;35.10;99.90
19868;DHT22;10096;51.112;6.776;2023-07-08T12:38:31;35.20;99.90
19868;DHT22;10096;51.112;6.776;2023-07-08T12:41:03;35.30;99.90
19868;DHT22;10096;51.112;6.776;2023-07-08T12:43:37;35.30;99.90
19868;DHT22;10096;51.112;6.776;2023-07-08T12:46:05;35.10;99.90
19868;DHT22;10096;51.112;6.776;2023-07-08T12:48:36;35.00;99.90
19868;DHT22;10096;51.112;6.776;2023-07-08T12:51:06;35.10;99.90
19868;DHT22;10096;51.112;6.776;2023-07-08T12:53:39;35.20;99.90
19868;DHT22;10096;51.112;6.776;2023-07-08T12:56:07;34.80;99.90
19868;DHT22;10096;51.112;6.776;2023-07-08T12:58:43;35.00;99.90
19868;DHT22;10096;51.112;6.776;2023-07-08T13:01:17;35.10;99.90
19868;DHT22;10096;51.112;6.776;2023-07-08T13:03:47;35.20;99.90
19868;DHT22;10096;51.112;6.776;2023-07-08T13:06:17;35.20;99.90
19868;DHT22;10096;51.112;6.776;2023-07-08T13:08:47;35.10;99.90
19868;DHT22;10096;51.112;6.776;2023-07-08T13:11:20;35.00;99.90
19868;DHT22;10096;51.112;6.776;2023-07-08T13:13:53;34.70;99.90
19868;DHT22;10096;51.112;6.776;2023-07-08T13:16:23;34.80;99.90
19868;DHT22;10096;51.112;6.776;2023-07-08T13:18:53;34.90;99.90
19868;DHT22;10096;51.112;6.776;2023-07-08T13:21:20;35.00;99.90
19868;DHT22;10096;51.112;6.776;2023-07-08T13:23:51;35.10;99.90
19868;DHT22;10096;51.112;6.776;2023-07-08T13:26:22;35.00;99.90
19868;DHT22;10096;51.112;6.776;2023-07-08T13:28:59;35.00;99.90
19868;DHT22;10096;51.112;6.776;2023-07-08T13:31:33;35.20;99.90
19868;DHT22;10096;51.112;6.776;2023-07-08T13:34:07;35.20;99.90
19868;DHT22;10096;51.112;6.776;2023-07-08T13:36:37;35.30;99.90
19868;DHT22;10096;51.112;6.776;2023-07-08T13:39:08;34.90;99.90
19868;DHT22;10096;51.112;6.776;2023-07-08T13:41:37;35.10;99.90
19868;DHT22;10096;51.112;6.776;2023-07-08T13:44:10;35.10;99.90
19868;DHT22;10096;51.112;6.776;2023-07-08T13:46:39;35.20;99.90
19868;DHT22;10096;51.112;6.776;2023-07-08T13:49:12;34.90;99.90
19868;DHT22;10096;51.112;6.776;2023-07-08T13:51:41;35.20;99.90
19868;DHT22;10096;51.112;6.776;2023-07-08T13:54:20;34.80;99.90
19868;DHT22;10096;51.112;6.776;2023-07-08T13:56:49;35.00;99.90
19868;DHT22;10096;51.112;6.776;2023-07-08T13:59:19;35.40;99.90
19868;DHT22;10096;51.112;6.776;2023-07-08T14:01:48;35.40;99.90
19868;DHT22;10096;51.112;6.776;2023-07-08T14:04:21;35.40;99.90
19868;DHT22;10096;51.112;6.776;2023-07-08T14:06:50;35.20;99.90
19868;DHT22;10096;51.112;6.776;2023-07-08T14:09:20;35.50;99.90
19868;DHT22;10096;51.112;6.776;2023-07-08T14:11:49;35.20;99.90
19868;DHT22;10096;51.112;6.776;2023-07-08T14:14:21;35.50;99.90
19868;DHT22;10096;51.112;6.776;2023-07-08T14:16:50;35.70;99.90
19868;DHT22;10096;51.112;6.776;2023-07-08T14:19:21;35.30;99.90
19868;DHT22;10096;51.112;6.776;2023-07-08T14:21:51;35.30;99.90
19868;DHT22;10096;51.112;6.776;2023-07-08T14:24:21;34.90;99.90
19868;DHT22;10096;51.112;6.776;2023-07-08T14:26:48;34.90;99.90
19868;DHT22;10096;51.112;6.776;2023-07-08T14:29:15;34.70;99.90
19868;DHT22;10096;51.112;6.776;2023-07-08T14:31:43;34.80;99.90
19868;DHT22;10096;51.112;6.776;2023-07-08T14:34:21;34.90;99.90
19868;DHT22;10096;51.112;6.776;2023-07-08T14:36:49;35.20;99.90
19868;DHT22;10096;51.112;6.776;2023-07-08T14:39:18;35.30;99.90
19868;DHT22;10096;51.112;6.776;2023-07-08T14:41:58;35.10;99.90
19868;DHT22;10096;51.112;6.776;2023-07-08T14:44:31;35.40;99.90
19868;DHT22;10096;51.112;6.776;2023-07-08T14:46:59;35.40;99.90
19868;DHT22;10096;51.112;6.776;2023-07-08T14:49:30;35.50;99.90
19868;DHT22;10096;51.112;6.776;2023-07-08T14:51:58;35.50;99.90
19868;DHT22;10096;51.112;6.776;2023-07-08T14:54:25;35.40;99.90
19868;DHT22;10096;51.112;6.776;2023-07-08T14:56:56;35.40;99.90
19868;DHT22;10096;51.112;6.776;2023-07-08T14:59:29;35.50;99.90
19868;DHT22;10096;51.112;6.776;2023-07-08T15:02:02;35.50;99.90
19868;DHT22;10096;51.112;6.776;2023-07-08T15:07:21;35.50;99.90
19868;DHT22;10096;51.112;6.776;2023-07-08T15:09:50;35.30;99.90
19868;DHT22;10096;51.112;6.776;2023-07-08T15:12:17;35.30;99.90
19868;DHT22;10096;51.112;6.776;2023-07-08T15:14:48;35.40;99.90
19868;DHT22;10096;51.112;6.776;2023-07-08T15:17:16;35.50;99.90
19868;DHT22;10096;51.112;6.776;2023-07-08T15:19:46;35.60;99.90
19868;DHT22;10096;51.112;6.776;2023-07-08T15:22:20;35.60;99.90
19868;DHT22;10096;51.112;6.776;2023-07-08T15:24:53;35.50;99.90
19868;DHT22;10096;51.112;6.776;2023-07-08T15:27:22;35.80;99.90
19868;DHT22;10096;51.112;6.776;2023-07-08T15:29:52;35.80;99.90
19868;DHT22;10096;51.112;6.776;2023-07-08T15:32:21;36.00;99.90
19868;DHT22;10096;51.112;6.776;2023-07-08T15:34:48;36.00;99.90
19868;DHT22;10096;51.112;6.776;2023-07-08T15:37:15;36.00;99.90
19868;DHT22;10096;51.112;6.776;2023-07-08T15:39:43;36.10;99.90
19868;DHT22;10096;51.112;6.776;2023-07-08T15:42:11;36.00;99.90
19868;DHT22;10096;51.112;6.776;2023-07-08T15:44:39;36.10;99.90
19868;DHT22;10096;51.112;6.776;2023-07-08T15:47:16;36.20;99.90
19868;DHT22;10096;51.112;6.776;2023-07-08T15:50:10;35.90;99.90
19868;DHT22;10096;51.112;6.776;2023-07-08T15:52:38;35.90;99.90
19868;DHT22;10096;51.112;6.776;2023-07-08T15:55:10;36.10;99.90
19868;DHT22;10096;51.112;6.776;2023-07-08T15:57:43;36.10;99.90